Terminal Aerodrome Forecast
Issued by NWS Dallas/Fort Worth, TX

Home | Current Version | Previous Version | Text Only | Print | Product List | Glossary On
Versions: 1 2 3 4 5 6 7 8 9 10 11 12 13 14 15 16 17 18 19 20 21 22 23 24 25 26 27 28 29 30 31 32 33
000
FTUS44 KFWD 291720
TAFDFW
TAF
KDFW 291720Z 2918/3024 21018KT P6SM FEW030 SCT250
     FM300000 28015KT P6SM BKN250
     FM300300 31016KT P6SM BKN100=

USA.gov is the U.S. government's official web portal to all federal, state and local government web resources and services.